createdAt,value
2024-05-09T00:00:56.746Z,6.00
2024-05-09T00:05:01.580Z,6.93
2024-05-09T00:09:08.765Z,5.60
2024-05-09T00:13:13.609Z,7.60
2024-05-09T00:17:18.191Z,5.33
2024-05-09T00:21:22.975Z,7.37
2024-05-09T00:25:30.101Z,5.67
2024-05-09T00:29:34.904Z,6.77
2024-05-09T00:33:39.773Z,5.57
2024-05-09T00:37:44.504Z,5.63
2024-05-09T00:41:51.908Z,5.73
2024-05-09T00:45:58.402Z,6.13
2024-05-09T00:50:05.531Z,6.03
2024-05-09T00:54:12.048Z,6.80
2024-05-09T00:58:23.043Z,6.63
2024-05-09T01:02:28.705Z,6.27
2024-05-09T01:06:33.382Z,6.40
2024-05-09T01:10:38.170Z,7.67
2024-05-09T01:14:45.570Z,7.35
2024-05-09T01:18:50.710Z,7.10
2024-05-09T01:22:56.670Z,6.73
2024-05-09T01:31:08.954Z,6.30
2024-05-09T01:35:13.668Z,6.10
2024-05-09T01:39:18.234Z,5.50
2024-05-09T01:43:25.368Z,7.37
2024-05-09T01:47:30.197Z,7.87
2024-05-09T01:51:35.061Z,7.10
2024-05-09T01:55:39.559Z,7.80
2024-05-09T01:59:46.952Z,7.10
2024-05-09T02:03:51.951Z,7.07
2024-05-09T02:07:57.164Z,6.75
2024-05-09T02:12:01.795Z,6.70
2024-05-09T02:16:13.341Z,7.50
2024-05-09T02:20:26.816Z,6.60
2024-05-09T02:24:35.066Z,6.53
2024-05-09T02:28:39.778Z,6.90
2024-05-09T02:32:47.117Z,6.50
2024-05-09T02:36:51.941Z,6.20
2024-05-09T02:40:56.754Z,6.90
2024-05-09T02:45:01.246Z,7.28
2024-05-09T02:49:08.698Z,7.10
2024-05-09T02:53:14.766Z,7.50
2024-05-09T02:57:19.792Z,7.53
2024-05-09T03:01:22.082Z,6.95
2024-05-09T03:05:29.459Z,5.43
2024-05-09T03:09:34.209Z,6.90
2024-05-09T03:13:41.305Z,7.07
2024-05-09T03:17:45.998Z,6.60
2024-05-09T03:21:53.824Z,6.50
2024-05-09T03:25:58.500Z,7.35
2024-05-09T03:30:05.501Z,16.00
2024-05-09T03:34:11.833Z,6.40
2024-05-09T03:38:19.309Z,7.23
2024-05-09T03:42:24.126Z,6.90
2024-05-09T03:46:28.650Z,7.30
2024-05-09T03:50:35.698Z,6.20
2024-05-09T03:54:48.173Z,6.67
2024-05-09T03:58:53.008Z,8.67
2024-05-09T04:02:57.984Z,7.57
2024-05-09T04:07:02.679Z,8.03
2024-05-09T04:11:10.183Z,8.10
2024-05-09T04:15:15.013Z,6.23
2024-05-09T04:19:20.112Z,8.07
2024-05-09T04:23:24.907Z,7.57
2024-05-09T04:27:32.302Z,7.20
2024-05-09T04:31:39.029Z,5.50
2024-05-09T04:35:45.155Z,7.87
2024-05-09T04:39:50.000Z,7.77
2024-05-09T04:43:57.657Z,7.35
2024-05-09T04:48:03.034Z,7.95
2024-05-09T04:52:08.711Z,7.70
2024-05-09T04:56:13.521Z,8.30
2024-05-09T05:00:28.927Z,7.95
2024-05-09T05:04:40.336Z,7.30
2024-05-09T05:08:44.845Z,7.30
2024-05-09T05:13:05.157Z,6.97
2024-05-09T05:17:12.369Z,7.07
2024-05-09T05:21:17.008Z,7.03
2024-05-09T05:25:21.871Z,7.32
2024-05-09T05:29:26.437Z,7.33
2024-05-09T05:33:33.745Z,7.03
2024-05-09T05:37:38.465Z,7.20
2024-05-09T05:41:43.142Z,7.40
2024-05-09T05:45:48.153Z,6.70
2024-05-09T05:49:55.527Z,7.13
2024-05-09T05:54:00.087Z,6.63
2024-05-09T05:58:04.906Z,6.40
2024-05-09T06:02:06.960Z,7.03
2024-05-09T06:06:16.359Z,7.13
2024-05-09T06:10:25.682Z,6.37
2024-05-09T06:14:34.794Z,6.20
2024-05-09T06:18:39.816Z,6.45
2024-05-09T06:22:47.139Z,6.70
2024-05-09T06:26:52.058Z,6.50
2024-05-09T06:30:56.747Z,4.73
2024-05-09T06:34:58.667Z,6.33
2024-05-09T06:39:06.239Z,5.00
2024-05-09T06:43:14.461Z,6.15
2024-05-09T06:47:19.894Z,4.82
2024-05-09T06:51:24.725Z,5.00
2024-05-09T06:55:32.093Z,5.03
2024-05-09T06:59:36.987Z,4.57
2024-05-09T07:03:44.113Z,5.60
2024-05-09T07:07:49.006Z,4.27
2024-05-09T07:11:56.343Z,5.78
2024-05-09T07:15:58.643Z,4.60
2024-05-09T07:20:05.468Z,6.37
2024-05-09T07:24:12.328Z,5.27
2024-05-09T07:28:21.071Z,16.27
2024-05-09T07:32:26.211Z,4.70
2024-05-09T07:36:30.814Z,4.83
2024-05-09T07:40:37.017Z,4.90
2024-05-09T07:44:44.597Z,4.23
2024-05-09T07:57:04.753Z,3.97
2024-05-09T08:01:12.267Z,3.97
2024-05-09T08:05:14.699Z,3.93
2024-05-09T08:09:21.169Z,5.00
2024-05-09T08:13:26.111Z,3.40
2024-05-09T08:17:33.492Z,3.80
2024-05-09T08:21:38.088Z,4.07
2024-05-09T08:25:42.808Z,4.50
2024-05-09T08:29:47.620Z,4.53
2024-05-09T08:33:56.778Z,3.67
2024-05-09T08:38:01.819Z,3.90
2024-05-09T08:42:10.541Z,4.13
2024-05-09T08:46:18.456Z,3.83
2024-05-09T08:50:35.396Z,3.92
2024-05-09T08:54:43.198Z,4.47
2024-05-09T08:58:48.527Z,3.37
2024-05-09T09:02:54.997Z,3.23
2024-05-09T09:07:03.635Z,2.80
2024-05-09T09:11:08.609Z,2.90
2024-05-09T09:15:13.119Z,2.70
2024-05-09T09:19:18.027Z,2.87
2024-05-09T09:23:27.304Z,2.80
2024-05-09T09:27:29.305Z,2.87
2024-05-09T09:31:34.101Z,3.17
2024-05-09T09:35:39.146Z,3.00
2024-05-09T09:39:49.128Z,3.70
2024-05-09T09:43:56.336Z,3.13
2024-05-09T09:48:02.254Z,3.50
2024-05-09T09:52:11.012Z,3.85
2024-05-09T09:56:20.374Z,2.60
2024-05-09T10:00:30.642Z,3.00
2024-05-09T10:04:38.007Z,3.00
2024-05-09T10:08:43.692Z,3.20
2024-05-09T10:13:00.509Z,3.42
2024-05-09T10:17:08.753Z,3.20
2024-05-09T10:21:23.016Z,2.97
2024-05-09T10:25:27.776Z,3.30
2024-05-09T10:29:34.998Z,2.77
2024-05-09T10:33:41.675Z,2.80
2024-05-09T10:37:46.680Z,2.87
2024-05-09T10:41:53.547Z,3.10
2024-05-09T10:46:01.196Z,2.50
2024-05-09T10:50:15.668Z,3.35
2024-05-09T10:54:28.106Z,3.10
2024-05-09T10:58:33.115Z,3.27
2024-05-09T11:02:40.402Z,3.00
2024-05-09T11:06:45.374Z,3.00
2024-05-09T11:10:48.970Z,3.07
2024-05-09T11:14:56.827Z,3.28
2024-05-09T11:19:04.462Z,3.20
2024-05-09T11:23:09.984Z,3.03
2024-05-09T11:31:19.871Z,2.70
2024-05-09T11:35:29.393Z,2.53
2024-05-09T11:39:33.980Z,2.60
2024-05-09T11:43:38.665Z,2.30
2024-05-09T11:47:43.550Z,2.92
2024-05-09T11:51:50.942Z,2.57
2024-05-09T11:55:55.749Z,2.73
2024-05-09T12:00:00.412Z,2.80
2024-05-09T12:04:05.607Z,2.85
2024-05-09T12:08:14.267Z,2.80
2024-05-09T12:12:18.997Z,2.75
2024-05-09T12:16:24.317Z,2.67
2024-05-09T12:20:36.177Z,2.78
2024-05-09T12:24:46.389Z,2.80
2024-05-09T12:28:51.262Z,2.83
2024-05-09T12:32:53.610Z,2.35
2024-05-09T12:36:59.022Z,2.70
2024-05-09T12:41:06.351Z,2.50
2024-05-09T12:45:11.307Z,3.07
2024-05-09T12:49:18.698Z,2.50
2024-05-09T12:53:24.106Z,2.28
2024-05-09T12:57:31.262Z,2.40
2024-05-09T13:01:35.924Z,2.63
2024-05-09T13:05:41.496Z,2.50
2024-05-09T13:09:46.582Z,2.37
2024-05-09T13:13:54.104Z,2.53
2024-05-09T13:18:02.630Z,2.43
2024-05-09T13:22:08.388Z,2.20
2024-05-09T13:26:13.350Z,2.80
2024-05-09T13:30:26.398Z,2.30
2024-05-09T13:34:39.139Z,2.40
2024-05-09T13:38:41.410Z,2.23
2024-05-09T13:42:48.681Z,2.10
2024-05-09T13:46:56.161Z,2.13
2024-05-09T13:51:00.981Z,2.30
2024-05-09T13:55:05.804Z,2.23
2024-05-09T13:59:11.405Z,2.38
2024-05-09T14:03:20.664Z,2.33
2024-05-09T14:07:25.965Z,2.30
2024-05-09T14:11:30.441Z,2.47
2024-05-09T14:19:42.181Z,2.38
2024-05-09T14:23:47.074Z,2.30
2024-05-09T14:27:52.619Z,2.45
2024-05-09T14:31:57.132Z,2.40
2024-05-09T14:36:04.580Z,2.23
2024-05-09T14:40:21.574Z,2.13
2024-05-09T14:44:34.848Z,2.33
2024-05-09T14:48:39.841Z,2.40
2024-05-09T14:52:47.079Z,2.30
2024-05-09T14:56:51.731Z,2.60
2024-05-09T15:00:56.504Z,2.83
2024-05-09T15:05:01.505Z,2.13
2024-05-09T15:09:07.907Z,2.70
2024-05-09T15:13:15.457Z,2.93
2024-05-09T15:17:21.271Z,2.37
2024-05-09T15:21:26.230Z,2.80
2024-05-09T15:25:33.861Z,2.40
2024-05-09T15:29:39.323Z,2.50
2024-05-09T15:33:44.362Z,2.28
2024-05-09T15:41:57.576Z,2.53
2024-05-09T15:46:02.793Z,2.38
2024-05-09T15:50:09.824Z,2.53
2024-05-09T15:54:21.082Z,2.33
2024-05-09T15:58:30.282Z,2.20
2024-05-09T16:02:35.109Z,2.27
2024-05-09T16:06:40.090Z,2.40
2024-05-09T16:10:46.208Z,2.27
2024-05-09T16:14:54.469Z,2.30
2024-05-09T16:18:59.357Z,2.20
2024-05-09T16:23:04.387Z,2.30
2024-05-09T16:27:08.890Z,2.50
2024-05-09T16:31:16.238Z,2.20
2024-05-09T16:35:20.730Z,2.23
2024-05-09T16:39:25.578Z,2.53
2024-05-09T16:47:37.582Z,2.75
2024-05-09T16:51:42.532Z,2.50
2024-05-09T16:55:47.457Z,2.17
2024-05-09T16:59:52.146Z,2.35
2024-05-09T17:03:59.859Z,12.15
2024-05-09T17:08:04.693Z,2.57
2024-05-09T17:12:09.366Z,2.53
2024-05-09T17:16:15.759Z,2.70
2024-05-09T17:20:29.728Z,2.90
2024-05-09T17:24:38.709Z,14.77
2024-05-09T17:28:43.690Z,7.73
2024-05-09T17:36:55.927Z,2.43
2024-05-09T17:41:00.918Z,2.40
2024-05-09T17:45:06.306Z,2.08
2024-05-09T17:49:11.148Z,4.20
2024-05-09T17:53:19.028Z,4.35
2024-05-09T17:57:23.891Z,3.30
2024-05-09T18:01:28.735Z,4.65
2024-05-09T18:05:31.464Z,3.28
2024-05-09T18:09:38.899Z,2.57
2024-05-09T18:13:43.739Z,2.88
2024-05-09T18:17:48.533Z,2.40
2024-05-09T18:21:53.251Z,2.73
2024-05-09T18:26:01.334Z,2.70
2024-05-09T18:30:09.446Z,2.70
2024-05-09T18:34:16.520Z,2.70
2024-05-09T18:42:32.782Z,2.80
2024-05-09T18:46:37.800Z,2.90
2024-05-09T18:50:42.591Z,3.17
2024-05-09T18:54:47.884Z,3.33
2024-05-09T18:58:55.303Z,3.00
2024-05-09T19:03:00.042Z,2.70
2024-05-09T19:07:05.460Z,2.70
2024-05-09T19:11:10.246Z,3.10
2024-05-09T19:15:18.008Z,3.20
2024-05-09T19:19:23.086Z,3.00
2024-05-09T19:23:27.780Z,4.13
2024-05-09T19:27:32.706Z,5.15
2024-05-09T19:31:40.076Z,6.15
2024-05-09T19:35:45.159Z,4.97
2024-05-09T19:39:50.098Z,4.38
2024-05-09T19:43:54.691Z,4.97
2024-05-09T19:48:02.214Z,4.20
2024-05-09T19:52:07.676Z,4.53
2024-05-09T19:56:12.383Z,4.60
2024-05-09T20:00:22.253Z,4.30
2024-05-09T20:04:37.374Z,4.30
2024-05-09T20:08:42.256Z,3.80
2024-05-09T20:12:47.029Z,4.50
2024-05-09T20:16:51.908Z,4.30
2024-05-09T20:21:00.309Z,3.70
2024-05-09T20:25:05.683Z,3.90
2024-05-09T20:29:10.207Z,4.33
2024-05-09T20:33:14.939Z,4.87
2024-05-09T20:37:23.151Z,5.50
2024-05-09T20:41:27.674Z,5.10
2024-05-09T20:45:32.331Z,5.83
2024-05-09T20:49:37.083Z,4.50
2024-05-09T20:53:44.514Z,3.95
2024-05-09T20:57:49.155Z,4.37
2024-05-09T21:01:54.316Z,4.97
2024-05-09T21:05:59.318Z,4.72
2024-05-09T21:10:15.303Z,4.70
2024-05-09T21:14:24.174Z,5.03
2024-05-09T21:18:28.761Z,4.47
2024-05-09T21:22:33.674Z,4.00
2024-05-09T21:26:41.341Z,4.68
2024-05-09T21:30:46.189Z,4.27
2024-05-09T21:34:50.866Z,4.77
2024-05-09T21:38:55.923Z,4.20
2024-05-09T21:43:04.032Z,4.70
2024-05-09T21:47:09.036Z,5.00
2024-05-09T21:51:16.382Z,4.90
2024-05-09T21:55:21.196Z,6.25
2024-05-09T21:59:28.550Z,6.20
2024-05-09T22:03:33.635Z,6.88
2024-05-09T22:07:35.665Z,6.03
2024-05-09T22:11:40.338Z,6.80
2024-05-09T22:15:47.618Z,4.33
2024-05-09T22:19:52.785Z,5.03
2024-05-09T22:23:57.531Z,5.50
2024-05-09T22:28:02.957Z,6.47
2024-05-09T22:32:10.887Z,5.57
2024-05-09T22:36:13.148Z,5.88
2024-05-09T22:40:28.228Z,7.25
2024-05-09T22:44:41.615Z,5.30
2024-05-09T22:48:49.128Z,6.27
2024-05-09T22:52:54.038Z,6.03
2024-05-09T22:56:58.811Z,6.05
2024-05-09T23:01:03.644Z,5.63
2024-05-09T23:05:11.305Z,5.90
2024-05-09T23:09:16.254Z,5.70
2024-05-09T23:13:21.113Z,7.13
2024-05-09T23:17:26.157Z,6.50
2024-05-09T23:21:33.974Z,5.63
2024-05-09T23:25:41.000Z,6.63
2024-05-09T23:29:46.398Z,6.68
2024-05-09T23:33:51.754Z,7.05
2024-05-09T23:37:58.958Z,5.13
2024-05-09T23:42:03.502Z,6.30
2024-05-09T23:46:08.431Z,6.27
2024-05-09T23:50:20.218Z,5.40
2024-05-09T23:54:30.852Z,6.20
2024-05-09T23:58:35.601Z,6.55
